This is the latest recevied weather packets stored in our database for station/object LU3HGB-WX. If no packets are shown the sender has not sent any weather packets the latest 10 day(s).
| Time | Temp. | Humidity | Pressure | Rain* | Wind** | Luminosity | Snow |
|---|---|---|---|---|---|---|---|
| 1778108563 | 18.33° C | 82% | 1007 hPa | 0 mm | - | 0 W/m² | - |
| 1778108259 | 18.89° C | 80% | 1007 hPa | 0 mm | - | 0 W/m² | - |
| 1778107960 | 18.89° C | 80% | 1007 hPa | 0 mm | - | 0 W/m² | - |
| 1778107659 | 19.44° C | 80% | 1007 hPa | 0 mm | - | 0 W/m² | - |
| 1778107360 | 20° C | 77% | 1007 hPa | 0 mm | - | 0 W/m² | - |
| 1778107060 | 20° C | 77% | 1007 hPa | 0 mm | - | 0 W/m² | - |
| 1778106760 | 20° C | 76% | 1007 hPa | 0 mm | - | 0 W/m² | - |
| 1778106468 | 20° C | 76% | 1007 hPa | 0 mm | - | 0 W/m² | - |
| 1778106160 | 20.56° C | 76% | 1007 hPa | 0 mm | - | 0 W/m² | - |
| 1778105859 | 20.56° C | 75% | 1007 hPa | 0 mm | - | 0 W/m² | - |
| 1778105559 | 20.56° C | 76% | 1007 hPa | 0 mm | - | 0 W/m² | - |
| 1778105265 | 20.56° C | 76% | 1007 hPa | 0 mm | - | 0 W/m² | - |
| 1778104960 | 20.56° C | 74% | 1006 hPa | 0 mm | - | 0 W/m² | - |
| 1778104659 | 21.11° C | 73% | 1006 hPa | 0 mm | - | 0 W/m² | - |
| 1778104359 | 21.11° C | 72% | 1006 hPa | 0 mm | - | 1 W/m² | - |
| 1778104062 | 21.67° C | 71% | 1006 hPa | 0 mm | - | 2 W/m² | - |
| 1778103760 | 21.67° C | 70% | 1006 hPa | 0 mm | - | 3 W/m² | - |
| 1778103460 | 22.22° C | 69% | 1006 hPa | 0 mm | - | 7 W/m² | - |
| 1778103160 | 22.78° C | 67% | 1005 hPa | 0 mm | - | 11 W/m² | - |
| 1778102859 | 23.33° C | 66% | 1005 hPa | 0 mm | - | 13 W/m² | - |
| 1778102559 | 23.33° C | 64% | 1005 hPa | 0 mm | - | 16 W/m² | - |
| 1778102259 | 23.89° C | 57% | 1005 hPa | 0 mm | - | 22 W/m² | - |
| 1778101960 | 24.44° C | 52% | 1005 hPa | 0 mm | - | 27 W/m² | - |
| 1778101659 | 25° C | 51% | 1005 hPa | 0 mm | - | 30 W/m² | - |
| 1778101359 | 25.56° C | 49% | 1005 hPa | 0 mm | - | 32 W/m² | - |
* Rain latest hour (hover to see other rain measurements)
** Current wind speed in m/s (hover to see current wind gust speed)